Time;durP1;ratioP1;P1;durP2;ratioP2;P2;SDS_P1;SDS_P2;PMS_P1;PMS_P2;Temp;Humidity;BMP_temperature;BMP_pressure;BME280_temperature;BME280_humidity;BME280_pressure;Samples;Min_cycle;Max_cycle;Signal;HPM_P1;HPM_P2
2020/12/08 00:00:36;;;;;;;32.95;16.00;;;;;;;2.13;100.00;94332.31;10486753;28;20028;-73
2020/12/08 00:05:36;;;;;;;36.30;18.52;;;;;;;2.03;100.00;94332.91;10521688;28;20407;-73
2020/12/08 00:10:37;;;;;;;32.80;17.58;;;;;;;2.07;100.00;94338.56;10497408;28;20040;-73
2020/12/08 00:15:37;;;;;;;36.47;17.00;;;;;;;2.15;100.00;94346.97;10485514;28;20515;-73
2020/12/08 00:20:37;;;;;;;35.15;17.33;;;;;;;2.45;100.00;94334.63;10486260;28;20047;-73
2020/12/08 00:25:38;;;;;;;27.88;14.13;;;;;;;2.56;100.00;94347.06;10481541;28;20032;-73
2020/12/08 00:30:38;;;;;;;26.13;12.77;;;;;;;2.67;100.00;94350.75;10528495;28;20043;-73
2020/12/08 00:35:39;;;;;;;25.47;13.00;;;;;;;2.61;100.00;94354.31;10519052;28;20032;-74
2020/12/08 00:40:40;;;;;;;20.70;12.33;;;;;;;2.71;100.00;94357.22;10485516;28;20135;-74
2020/12/08 00:45:41;;;;;;;19.27;10.93;;;;;;;2.72;100.00;94367.59;10467496;28;20357;-74
2020/12/08 00:50:41;;;;;;;17.70;10.20;;;;;;;2.77;100.00;94364.22;10524292;28;20031;-74
2020/12/08 00:55:41;;;;;;;12.20;7.77;;;;;;;2.66;100.00;94354.44;10526052;28;20032;-74
2020/12/08 01:00:42;;;;;;;12.80;7.73;;;;;;;2.60;100.00;94366.00;10526821;28;20039;-74
2020/12/08 01:05:42;;;;;;;13.80;9.80;;;;;;;2.65;100.00;94369.56;10526867;28;20043;-74
2020/12/08 01:10:43;;;;;;;10.90;5.53;;;;;;;2.64;100.00;94375.91;10526870;28;20044;-74
2020/12/08 01:15:43;;;;;;;7.23;4.87;;;;;;;2.64;100.00;94383.06;10508016;28;20139;-74
2020/12/08 01:20:45;;;;;;;12.38;7.07;;;;;;;2.67;100.00;94377.28;10526608;28;20648;-75
2020/12/08 01:25:45;;;;;;;16.42;8.77;;;;;;;2.67;100.00;94386.03;10526236;28;20036;-74
2020/12/08 01:30:49;;;;;;;18.30;10.13;;;;;;;2.70;100.00;94380.25;10508330;28;20031;-75
2020/12/08 01:35:49;;;;;;;18.40;9.73;;;;;;;2.61;100.00;94370.25;10508283;28;20274;-75
2020/12/08 01:40:54;;;;;;;19.87;10.63;;;;;;;2.65;100.00;94374.03;10508238;28;20038;-74
2020/12/08 01:45:54;;;;;;;18.70;10.43;;;;;;;2.67;100.00;94364.81;10525760;28;20630;-74
2020/12/08 01:50:55;;;;;;;22.17;10.80;;;;;;;2.81;100.00;94360.06;10533031;28;20032;-73
2020/12/08 01:55:55;;;;;;;20.67;10.80;;;;;;;2.83;100.00;94370.44;10533945;28;20040;-73
2020/12/08 02:00:56;;;;;;;23.25;11.23;;;;;;;2.81;100.00;94375.19;10533058;28;20401;-73
2020/12/08 02:05:56;;;;;;;17.30;10.45;;;;;;;2.80;100.00;94368.25;10514427;28;20048;-73
2020/12/08 02:10:57;;;;;;;18.88;9.63;;;;;;;2.78;100.00;94368.50;10532157;28;20089;-74
2020/12/08 02:15:58;;;;;;;21.83;8.60;;;;;;;2.79;100.00;94364.00;10532320;28;20045;-75
2020/12/08 02:21:01;;;;;;;12.93;6.97;;;;;;;2.73;100.00;94363.06;10532215;28;20052;-74
2020/12/08 02:26:04;;;;;;;13.52;7.15;;;;;;;2.76;100.00;94359.94;10532436;28;20399;-74
2020/12/08 02:31:05;;;;;;;14.73;6.97;;;;;;;2.76;100.00;94373.22;10533311;28;20130;-74
2020/12/08 02:36:05;;;;;;;15.13;7.30;;;;;;;2.72;100.00;94383.50;10533066;28;20044;-74
2020/12/08 02:41:06;;;;;;;15.00;7.13;;;;;;;2.71;100.00;94367.81;10532631;28;20346;-74
2020/12/08 02:46:10;;;;;;;17.92;8.52;;;;;;;2.69;100.00;94367.22;10532313;28;20047;-74
2020/12/08 02:51:15;;;;;;;12.65;6.90;;;;;;;2.59;100.00;94362.50;10532157;28;20028;-74
2020/12/08 02:56:25;;;;;;;12.10;6.22;;;;;;;2.59;100.00;94361.72;10531903;28;20119;-74
2020/12/08 03:01:26;;;;;;;13.25;6.65;;;;;;;2.67;100.00;94354.19;10530243;28;20040;-74
2020/12/08 03:06:26;;;;;;;87.60;10.52;;;;;;;2.68;100.00;94357.66;10531679;28;20036;-74
2020/12/08 03:11:31;;;;;;;16.87;8.33;;;;;;;2.42;100.00;94356.31;10530961;28;20021;-74
2020/12/08 03:16:31;;;;;;;13.05;7.28;;;;;;;2.26;100.00;94365.75;10530625;28;20384;-74
2020/12/08 03:21:36;;;;;;;14.37;7.10;;;;;;;1.99;100.00;94371.50;10531626;28;20039;-74
2020/12/08 03:26:36;;;;;;;14.20;6.80;;;;;;;2.14;100.00;94374.50;10531310;28;20649;-74
2020/12/08 03:31:37;;;;;;;10.50;6.60;;;;;;;2.24;100.00;94375.78;10531801;28;20028;-74
2020/12/08 03:36:37;;;;;;;12.13;6.88;;;;;;;2.17;100.00;94371.41;10529484;28;20062;-74
2020/12/08 03:41:38;;;;;;;13.57;6.90;;;;;;;2.28;100.00;94369.78;10512223;28;20807;-74
2020/12/08 03:46:38;;;;;;;9.27;5.15;;;;;;;2.36;100.00;94381.91;10528773;28;20043;-74
2020/12/08 03:51:39;;;;;;;7.45;4.13;;;;;;;2.38;100.00;94387.78;10511656;28;20495;-74
2020/12/08 03:56:44;;;;;;;11.38;5.40;;;;;;;2.29;100.00;94395.28;10529594;28;20040;-74
2020/12/08 04:01:46;;;;;;;8.60;4.93;;;;;;;2.43;100.00;94398.50;10512096;28;20032;-74
2020/12/08 04:06:47;;;;;;;12.13;7.28;;;;;;;2.45;100.00;94396.44;10528597;28;20042;-73
2020/12/08 04:11:47;;;;;;;23.58;8.70;;;;;;;2.51;100.00;94407.97;10527622;28;20036;-74
2020/12/08 04:16:48;;;;;;;14.03;8.40;;;;;;;2.53;100.00;94408.56;10529575;28;20063;-73
2020/12/08 04:21:48;;;;;;;11.88;7.15;;;;;;;2.58;100.00;94413.94;10528857;28;20298;-75
2020/12/08 04:26:49;;;;;;;12.25;6.97;;;;;;;2.65;100.00;94414.66;10529140;28;20387;-75
2020/12/08 04:31:50;;;;;;;12.37;7.00;;;;;;;2.64;100.00;94412.25;10528625;28;20115;-75
2020/12/08 04:36:51;;;;;;;11.95;7.28;;;;;;;2.45;100.00;94412.34;10526546;28;20285;-75
2020/12/08 04:41:55;;;;;;;13.20;7.28;;;;;;;2.34;100.00;94418.44;10486886;28;20029;-75
2020/12/08 04:46:57;;;;;;;15.38;8.02;;;;;;;2.38;100.00;94424.91;10486314;28;20830;-75
2020/12/08 04:51:57;;;;;;;16.17;7.13;;;;;;;2.24;100.00;94418.22;10466881;28;20411;-75
2020/12/08 04:56:57;;;;;;;14.03;7.77;;;;;;;2.35;100.00;94420.88;10485574;28;20033;-75
2020/12/08 05:02:02;;;;;;;16.20;7.47;;;;;;;2.47;100.00;94423.53;10485584;28;20305;-75
2020/12/08 05:07:07;;;;;;;14.15;8.35;;;;;;;2.52;100.00;94422.84;10467024;28;20070;-75
2020/12/08 05:12:07;;;;;;;16.90;7.72;;;;;;;2.54;100.00;94418.94;10502900;28;20089;-75
2020/12/08 05:17:08;;;;;;;13.53;7.27;;;;;;;2.67;100.00;94422.38;10525878;28;20097;-75
2020/12/08 05:22:09;;;;;;;10.98;6.20;;;;;;;2.64;100.00;94425.50;10529060;28;20297;-75
2020/12/08 05:27:11;;;;;;;12.75;7.05;;;;;;;2.48;100.00;94427.78;10533649;28;20024;-75
2020/12/08 05:32:23;;;;;;;14.45;8.20;;;;;;;2.47;100.00;94434.16;10537670;28;20064;-75
2020/12/08 05:37:24;;;;;;;19.25;9.50;;;;;;;2.43;100.00;94440.94;10490778;28;20032;-74
2020/12/08 05:42:24;;;;;;;20.63;9.75;;;;;;;2.28;100.00;94445.91;10491327;28;20054;-73
2020/12/08 05:47:24;;;;;;;24.45;12.38;;;;;;;2.38;100.00;94441.63;10490820;28;20029;-73
2020/12/08 05:52:28;;;;;;;35.93;16.47;;;;;;;2.35;100.00;94452.69;10512825;28;20085;-73
2020/12/08 05:57:31;;;;;;;36.90;16.20;;;;;;;2.34;100.00;94453.72;10532063;28;20715;-73
2020/12/08 06:02:32;;;;;;;47.72;16.73;;;;;;;2.51;100.00;94445.09;10531843;28;20830;-73
2020/12/08 06:07:32;;;;;;;39.88;16.15;;;;;;;2.61;100.00;94445.34;10514432;28;20035;-73
2020/12/08 06:12:33;;;;;;;37.55;15.63;;;;;;;2.67;100.00;94454.22;10532076;28;20674;-73
2020/12/08 06:17:43;;;;;;;41.97;16.73;;;;;;;2.76;100.00;94463.44;10533685;28;20058;-73
2020/12/08 06:22:57;;;;;;;45.72;18.73;;;;;;;2.84;100.00;94465.75;10515746;28;20044;-73
2020/12/08 06:28:03;;;;;;;45.53;16.92;;;;;;;2.83;100.00;94472.13;10533632;28;20111;-73
2020/12/08 06:33:03;;;;;;;42.83;18.27;;;;;;;2.80;100.00;94477.06;10512391;28;20032;-73
2020/12/08 06:38:04;;;;;;;43.97;16.27;;;;;;;2.80;100.00;94483.19;10491755;28;20508;-73
2020/12/08 06:43:07;;;;;;;42.75;17.98;;;;;;;2.67;100.00;94483.41;10491018;28;20036;-72
2020/12/08 06:48:17;;;;;;;54.42;19.08;;;;;;;2.50;100.00;94491.25;10491373;28;20166;-72
2020/12/08 06:53:18;;;;;;;45.90;18.67;;;;;;;2.60;100.00;94502.09;10490879;28;20522;-73
2020/12/08 06:58:19;;;;;;;42.30;17.70;;;;;;;2.73;100.00;94506.38;10490988;28;20032;-72
2020/12/08 07:03:20;;;;;;;55.78;19.83;;;;;;;3.03;100.00;94513.44;10490288;28;20291;-72
2020/12/08 07:08:21;;;;;;;42.67;20.38;;;;;;;3.20;100.00;94527.63;10490514;28;20495;-72
2020/12/08 07:13:21;;;;;;;37.25;21.33;;;;;;;3.25;100.00;94519.75;10490189;28;20032;-73
2020/12/08 07:18:22;;;;;;;37.75;16.88;;;;;;;3.37;100.00;94521.59;10505128;28;20048;-72
2020/12/08 07:23:22;;;;;;;22.60;13.40;;;;;;;3.40;100.00;94526.44;10492019;28;20099;-72
2020/12/08 07:28:24;;;;;;;23.47;13.37;;;;;;;3.43;100.00;94520.66;10488949;28;20029;-73
2020/12/08 07:33:30;;;;;;;41.47;21.20;;;;;;;3.47;100.00;94526.31;10527241;28;20024;-73
2020/12/08 07:38:39;;;;;;;32.85;17.23;;;;;;;3.39;100.00;94530.94;10489159;28;20043;-73
2020/12/08 07:43:39;;;;;;;39.10;18.83;;;;;;;3.45;100.00;94534.53;10503568;28;20035;-73
2020/12/08 07:48:39;;;;;;;37.43;20.30;;;;;;;3.45;100.00;94528.38;10519268;28;20032;-73
2020/12/08 07:53:40;;;;;;;33.22;18.73;;;;;;;3.59;100.00;94535.09;10514698;28;20291;-73
2020/12/08 07:58:41;;;;;;;31.23;16.48;;;;;;;3.61;100.00;94535.66;10510930;28;20037;-73
2020/12/08 08:03:41;;;;;;;34.20;17.43;;;;;;;3.71;100.00;94538.53;10502689;28;20058;-73
2020/12/08 08:08:41;;;;;;;30.60;16.38;;;;;;;3.73;100.00;94533.78;10487933;28;20037;-73
2020/12/08 08:13:42;;;;;;;26.65;14.85;;;;;;;3.73;100.00;94541.75;10503288;28;20028;-73
2020/12/08 08:18:45;;;;;;;50.38;20.92;;;;;;;3.72;100.00;94541.97;10502306;28;20044;-72
2020/12/08 08:23:46;;;;;;;30.08;15.77;;;;;;;3.97;100.00;94548.84;10506197;28;20032;-72
2020/12/08 08:28:48;;;;;;;31.23;17.35;;;;;;;4.13;100.00;94550.78;10517079;28;20035;-73
2020/12/08 08:33:49;;;;;;;40.38;20.88;;;;;;;4.03;100.00;94558.53;10487303;28;20479;-74
2020/12/08 08:38:53;;;;;;;58.25;27.27;;;;;;;3.98;100.00;94559.25;10490538;28;20047;-73
2020/12/08 08:43:53;;;;;;;58.92;25.70;;;;;;;4.08;100.00;94570.06;10501552;28;20040;-72
2020/12/08 08:48:53;;;;;;;44.63;23.07;;;;;;;4.20;100.00;94571.88;10496377;28;20032;-71
2020/12/08 08:53:54;;;;;;;44.30;21.67;;;;;;;4.29;100.00;94567.81;10486108;28;20370;-71
2020/12/08 08:58:54;;;;;;;43.90;21.63;;;;;;;4.37;100.00;94563.97;10493245;28;20131;-71
2020/12/08 09:03:56;;;;;;;53.30;22.67;;;;;;;4.46;100.00;94551.88;10494541;28;20028;-71
2020/12/08 09:08:59;;;;;;;45.78;23.13;;;;;;;4.43;100.00;94557.69;10494793;28;20040;-71
2020/12/08 09:13:59;;;;;;;49.60;23.63;;;;;;;4.14;100.00;94552.38;10494651;28;20048;-71
2020/12/08 09:19:00;;;;;;;48.03;24.57;;;;;;;4.37;100.00;94556.78;10494839;28;20040;-72
2020/12/08 09:24:00;;;;;;;47.78;23.63;;;;;;;4.57;100.00;94559.00;10494214;28;20299;-73
2020/12/08 09:29:02;;;;;;;55.20;25.70;;;;;;;4.71;100.00;94551.50;10494449;28;20079;-71
2020/12/08 09:34:03;;;;;;;52.10;25.63;;;;;;;4.69;100.00;94542.16;10494284;28;20031;-73
2020/12/08 09:39:04;;;;;;;51.25;25.02;;;;;;;4.72;100.00;94539.81;10493419;28;20154;-73
2020/12/08 09:44:08;;;;;;;54.45;28.05;;;;;;;4.77;100.00;94539.91;10493568;28;20147;-71
2020/12/08 09:49:10;;;;;;;52.50;27.63;;;;;;;4.71;100.00;94542.72;10493389;28;20950;-71
2020/12/08 09:54:10;;;;;;;52.70;26.55;;;;;;;4.65;100.00;94533.03;10492885;28;20028;-73
2020/12/08 09:59:11;;;;;;;57.42;29.52;;;;;;;4.56;100.00;94533.44;10492866;28;20032;-73
2020/12/08 10:04:11;;;;;;;54.92;28.08;;;;;;;4.65;100.00;94536.53;10492959;28;20913;-73
2020/12/08 10:09:12;;;;;;;54.78;26.55;;;;;;;4.87;100.00;94527.81;10491512;28;20064;-73
2020/12/08 10:14:13;;;;;;;50.05;26.27;;;;;;;5.02;100.00;94530.69;10474313;28;20047;-73
2020/12/08 10:19:13;;;;;;;59.05;27.95;;;;;;;5.17;100.00;94535.47;10491783;28;20044;-73
2020/12/08 10:24:14;;;;;;;58.35;28.38;;;;;;;5.23;100.00;94531.84;10491769;28;20072;-73
2020/12/08 10:29:15;;;;;;;59.45;30.13;;;;;;;5.20;100.00;94539.50;10500444;28;20063;-72
2020/12/08 10:34:16;;;;;;;56.25;27.48;;;;;;;5.22;100.00;94535.53;10497630;28;20031;-72
2020/12/08 10:39:17;;;;;;;60.45;30.92;;;;;;;5.17;100.00;94524.81;10516427;28;20028;-71
2020/12/08 10:44:17;;;;;;;60.22;29.73;;;;;;;5.24;100.00;94532.63;10500628;28;20037;-71
2020/12/08 10:49:22;;;;;;;58.88;29.35;;;;;;;5.29;100.00;94522.06;10525441;28;20025;-72
2020/12/08 10:54:23;;;;;;;60.65;29.13;;;;;;;5.40;100.00;94517.66;10511798;28;20122;-72
2020/12/08 10:59:23;;;;;;;64.13;29.05;;;;;;;5.44;100.00;94522.28;10506019;28;20131;-73
2020/12/08 11:04:24;;;;;;;57.53;29.08;;;;;;;5.40;100.00;94529.13;10523130;28;20047;-73
2020/12/08 11:09:25;;;;;;;72.15;31.55;;;;;;;5.45;100.00;94531.84;10493180;28;20110;-73
2020/12/08 11:14:28;;;;;;;59.38;28.30;;;;;;;5.46;100.00;94527.34;10497111;28;20051;-73
2020/12/08 11:19:28;;;;;;;46.47;23.75;;;;;;;5.93;100.00;94524.22;10523048;28;20117;-72
2020/12/08 11:24:29;;;;;;;50.80;24.45;;;;;;;6.99;100.00;94518.56;10531672;28;20549;-71
2020/12/08 11:29:29;;;;;;;48.20;25.15;;;;;;;7.12;100.00;94504.78;10516416;28;20186;-72
2020/12/08 11:34:29;;;;;;;46.67;23.55;;;;;;;7.64;100.00;94497.84;10508433;28;20492;-72
2020/12/08 11:39:31;;;;;;;46.35;23.20;;;;;;;7.92;100.00;94500.38;10490875;28;20526;-72
2020/12/08 11:44:31;;;;;;;56.83;22.65;;;;;;;7.87;100.00;94499.28;10513244;28;20036;-72
2020/12/08 11:49:35;;;;;;;44.35;21.58;;;;;;;7.37;100.00;94508.69;10488919;28;20039;-72
2020/12/08 11:54:37;;;;;;;48.00;22.80;;;;;;;6.73;100.00;94504.22;10488445;28;20029;-72
2020/12/08 11:59:38;;;;;;;50.53;24.20;;;;;;;6.37;100.00;94509.22;10484643;28;20517;-72
2020/12/08 12:04:38;;;;;;;52.10;25.55;;;;;;;6.66;100.00;94509.75;10487781;28;20043;-72
2020/12/08 12:09:39;;;;;;;53.03;26.48;;;;;;;6.75;100.00;94507.44;10487930;28;20036;-72
2020/12/08 12:14:39;;;;;;;46.27;24.67;;;;;;;6.65;100.00;94505.47;10487317;28;20131;-72
2020/12/08 12:19:40;;;;;;;52.40;25.75;;;;;;;6.56;100.00;94510.47;10487651;28;20047;-72
2020/12/08 12:24:40;;;;;;;49.53;25.27;;;;;;;6.46;100.00;94510.38;10487459;28;20143;-72
2020/12/08 12:29:41;;;;;;;49.92;25.58;;;;;;;6.21;100.00;94506.41;10488067;28;20407;-73
2020/12/08 12:34:41;;;;;;;51.10;24.77;;;;;;;6.23;100.00;94504.28;10487456;28;20032;-72
2020/12/08 12:39:42;;;;;;;58.78;28.30;;;;;;;5.96;100.00;94498.91;10487055;28;20036;-72
2020/12/08 12:44:42;;;;;;;59.65;29.60;;;;;;;5.36;100.00;94519.19;10487048;28;20453;-72
2020/12/08 12:49:42;;;;;;;56.47;28.73;;;;;;;5.15;100.00;94518.94;10487411;28;20040;-72
2020/12/08 12:54:43;;;;;;;65.37;31.07;;;;;;;5.23;100.00;94512.38;10486612;28;20793;-72
2020/12/08 12:59:44;;;;;;;57.72;29.88;;;;;;;5.43;100.00;94496.66;10486906;28;20896;-73
2020/12/08 13:04:44;;;;;;;56.67;28.50;;;;;;;5.55;100.00;94493.88;10486347;28;20060;-72
2020/12/08 13:09:45;;;;;;;58.65;26.95;;;;;;;5.60;100.00;94495.81;10486628;28;20119;-72
2020/12/08 13:14:46;;;;;;;49.20;25.38;;;;;;;5.48;100.00;94499.41;10486509;28;20124;-72
2020/12/08 13:19:46;;;;;;;46.35;21.67;;;;;;;5.37;100.00;94494.16;10486336;28;20123;-72
2020/12/08 13:24:47;;;;;;;42.22;20.38;;;;;;;5.26;100.00;94487.88;10486091;28;20040;-72
2020/12/08 13:29:47;;;;;;;45.10;20.90;;;;;;;5.36;100.00;94484.56;10486468;28;20487;-71
2020/12/08 13:34:48;;;;;;;39.72;19.38;;;;;;;5.35;100.00;94488.28;10485953;28;20370;-72
2020/12/08 13:39:48;;;;;;;41.88;20.00;;;;;;;5.48;100.00;94494.06;10486369;28;20067;-72
2020/12/08 13:44:49;;;;;;;39.88;20.65;;;;;;;5.43;100.00;94501.19;10491365;28;20025;-72
2020/12/08 13:49:49;;;;;;;42.53;22.30;;;;;;;5.38;100.00;94501.13;10493355;28;20147;-72
2020/12/08 13:54:50;;;;;;;43.80;22.27;;;;;;;5.33;100.00;94503.69;10492986;28;20287;-72
2020/12/08 13:59:51;;;;;;;39.97;19.33;;;;;;;5.45;100.00;94512.41;10492914;28;20558;-72
2020/12/08 14:04:52;;;;;;;41.17;20.45;;;;;;;5.43;100.00;94501.19;10492508;28;20035;-72
2020/12/08 14:09:52;;;;;;;44.83;20.20;;;;;;;5.39;100.00;94503.53;10492669;28;20055;-72
2020/12/08 14:14:52;;;;;;;46.50;22.08;;;;;;;5.41;100.00;94516.59;10492074;28;20068;-72
2020/12/08 14:19:53;;;;;;;50.80;23.53;;;;;;;5.35;100.00;94509.59;10492547;28;20131;-72
2020/12/08 14:24:55;;;;;;;57.93;27.50;;;;;;;5.12;100.00;94514.06;10491837;28;20024;-72
2020/12/08 14:29:56;;;;;;;54.80;25.90;;;;;;;4.96;100.00;94515.72;10491870;28;20087;-72
2020/12/08 14:34:56;;;;;;;48.72;26.02;;;;;;;4.97;100.00;94514.66;10532354;28;20502;-72
2020/12/08 14:39:57;;;;;;;55.33;26.77;;;;;;;4.97;100.00;94512.78;10494735;28;20058;-72
2020/12/08 14:44:57;;;;;;;64.17;28.67;;;;;;;4.93;100.00;94521.53;10486461;28;20036;-73
2020/12/08 14:49:58;;;;;;;60.72;27.17;;;;;;;4.77;100.00;94536.44;10501205;28;20294;-72
2020/12/08 14:54:59;;;;;;;56.92;27.90;;;;;;;4.57;100.00;94527.06;10490241;28;20458;-72
2020/12/08 14:59:59;;;;;;;65.05;28.90;;;;;;;4.55;100.00;94536.31;10499327;28;20038;-73
2020/12/08 15:05:00;;;;;;;58.23;28.93;;;;;;;4.30;100.00;94544.66;10503246;28;20033;-72
2020/12/08 15:10:00;;;;;;;62.67;27.02;;;;;;;4.13;100.00;94550.78;10490352;28;20348;-72
2020/12/08 15:15:00;;;;;;;69.55;28.23;;;;;;;4.06;100.00;94552.75;10496801;28;20060;-72
2020/12/08 15:20:01;;;;;;;54.33;27.17;;;;;;;4.03;100.00;94547.91;10526228;28;20028;-72
2020/12/08 15:25:02;;;;;;;57.22;24.95;;;;;;;4.04;100.00;94552.19;10526752;28;20475;-72
2020/12/08 15:30:03;;;;;;;53.33;24.92;;;;;;;3.96;100.00;94550.69;10523029;28;20027;-72
2020/12/08 15:35:04;;;;;;;62.60;26.45;;;;;;;3.86;100.00;94551.28;10528237;28;20495;-72
2020/12/08 15:40:05;;;;;;;52.95;26.80;;;;;;;3.85;100.00;94560.34;10527662;28;20039;-72
2020/12/08 15:45:08;;;;;;;65.00;28.70;;;;;;;3.85;100.00;94560.34;10509214;28;20709;-73
2020/12/08 15:50:11;;;;;;;60.65;31.02;;;;;;;3.86;100.00;94547.84;10508623;28;20032;-73
2020/12/08 15:55:12;;;;;;;68.30;34.40;;;;;;;3.87;100.00;94550.25;10504698;28;20028;-73
2020/12/08 16:00:13;;;;;;;63.28;31.27;;;;;;;3.69;100.00;94567.16;10517101;28;20090;-73
2020/12/08 16:05:14;;;;;;;77.53;34.58;;;;;;;3.64;100.00;94571.56;10469838;28;20067;-73
2020/12/08 16:10:14;;;;;;;65.32;30.23;;;;;;;3.47;100.00;94568.81;10487574;28;20039;-72
2020/12/08 16:15:15;;;;;;;69.65;34.85;;;;;;;3.49;100.00;94580.84;10497663;28;20080;-72
2020/12/08 16:20:18;;;;;;;59.22;28.88;;;;;;;3.38;100.00;94582.47;10504265;28;20063;-73
2020/12/08 16:25:19;;;;;;;60.33;28.88;;;;;;;3.35;100.00;94579.44;10509743;28;20102;-72
2020/12/08 16:30:19;;;;;;;55.83;28.08;;;;;;;3.37;100.00;94580.03;10522991;28;20035;-72
2020/12/08 16:35:20;;;;;;;59.35;29.98;;;;;;;3.47;100.00;94579.47;10498903;28;20089;-72
2020/12/08 16:40:20;;;;;;;60.88;27.60;;;;;;;3.48;100.00;94581.09;10503209;28;20028;-73
2020/12/08 16:45:21;;;;;;;67.78;32.28;;;;;;;3.48;100.00;94579.22;10520302;28;20040;-72
2020/12/08 16:50:22;;;;;;;67.53;33.95;;;;;;;3.33;100.00;94582.34;10528119;28;20094;-72
2020/12/08 16:55:23;;;;;;;67.63;37.65;;;;;;;3.24;100.00;94594.38;10525030;28;20100;-72
2020/12/08 17:00:24;;;;;;;77.88;35.95;;;;;;;3.23;100.00;94590.09;10510397;28;20444;-72
2020/12/08 17:05:25;;;;;;;61.35;31.42;;;;;;;3.21;100.00;94592.16;10528039;28;20040;-72
2020/12/08 17:10:25;;;;;;;64.15;31.63;;;;;;;3.30;100.00;94580.16;10528481;28;20445;-72
2020/12/08 17:15:26;;;;;;;52.80;27.73;;;;;;;3.23;100.00;94577.59;10528321;28;20036;-73
2020/12/08 17:20:28;;;;;;;44.58;23.98;;;;;;;3.12;100.00;94578.41;10535746;28;20047;-74
2020/12/08 17:25:29;;;;;;;48.72;23.98;;;;;;;3.03;100.00;94590.44;10497589;28;20040;-73
2020/12/08 17:30:29;;;;;;;50.22;25.15;;;;;;;3.04;100.00;94610.59;10494386;28;20059;-73
2020/12/08 17:35:31;;;;;;;51.72;26.83;;;;;;;3.03;100.00;94615.13;10494034;28;20431;-72
2020/12/08 17:40:31;;;;;;;48.97;25.02;;;;;;;3.05;100.00;94609.56;10483088;28;20032;-75
2020/12/08 17:45:32;;;;;;;45.42;23.90;;;;;;;3.08;100.00;94601.16;10495208;28;20029;-75
2020/12/08 17:50:33;;;;;;;39.78;21.52;;;;;;;3.04;100.00;94624.72;10493521;28;20098;-75
2020/12/08 17:55:34;;;;;;;52.10;24.67;;;;;;;3.01;100.00;94627.00;10475625;28;20449;-76
2020/12/08 18:00:34;;;;;;;38.30;18.73;;;;;;;2.74;100.00;94635.38;10497902;28;20051;-75
2020/12/08 18:05:35;;;;;;;43.22;19.38;;;;;;;2.81;100.00;94629.97;10492924;28;20037;-75
2020/12/08 18:10:36;;;;;;;48.05;24.85;;;;;;;2.66;100.00;94636.47;10482116;28;20033;-75
2020/12/08 18:15:38;;;;;;;49.90;25.08;;;;;;;2.56;100.00;94642.34;10455618;28;20152;-76
2020/12/08 18:20:40;;;;;;;51.65;25.10;;;;;;;2.50;100.00;94642.44;10492629;28;20075;-76
2020/12/08 18:25:41;;;;;;;53.88;30.40;;;;;;;2.50;100.00;94648.53;10492017;28;20071;-76
2020/12/08 18:30:41;;;;;;;75.07;35.45;;;;;;;2.35;100.00;94658.75;10491035;28;20124;-76
2020/12/08 18:35:43;;;;;;;88.85;40.90;;;;;;;2.37;100.00;94661.97;10492150;28;20029;-75
2020/12/08 18:40:45;;;;;;;88.75;41.75;;;;;;;2.50;100.00;94669.78;10487172;28;20484;-76
2020/12/08 18:45:48;;;;;;;107.63;54.17;;;;;;;2.59;100.00;94667.59;10476890;28;20494;-76
2020/12/08 18:50:49;;;;;;;110.43;51.33;;;;;;;2.76;100.00;94665.13;10486912;28;20043;-75
2020/12/08 18:55:50;;;;;;;104.40;51.88;;;;;;;2.90;100.00;94655.97;10467818;28;20028;-75
2020/12/08 19:00:51;;;;;;;108.97;53.55;;;;;;;2.84;100.00;94654.19;10485627;28;20148;-75
2020/12/08 19:05:51;;;;;;;112.28;54.97;;;;;;;2.72;100.00;94643.56;10457656;28;20047;-74
2020/12/08 19:10:53;;;;;;;124.07;59.30;;;;;;;2.54;100.00;94654.19;10460751;28;20047;-74
2020/12/08 19:15:55;;;;;;;132.75;64.72;;;;;;;2.53;100.00;94661.34;10487874;28;20040;-75
2020/12/08 19:20:56;;;;;;;120.15;53.92;;;;;;;2.33;100.00;94655.50;10482993;28;20496;-75
2020/12/08 19:25:58;;;;;;;126.55;57.95;;;;;;;2.31;100.00;94662.88;10485906;28;20068;-74
2020/12/08 19:30:59;;;;;;;110.70;56.33;;;;;;;2.36;100.00;94665.69;10497810;28;20043;-72
2020/12/08 19:36:01;;;;;;;113.72;55.45;;;;;;;2.28;100.00;94666.78;10527874;28;20529;-73
2020/12/08 19:41:02;;;;;;;108.25;53.47;;;;;;;2.29;100.00;94664.94;10527903;28;20036;-73
2020/12/08 19:46:03;;;;;;;106.75;54.20;;;;;;;2.34;100.00;94657.13;10527480;28;20039;-72
2020/12/08 19:51:04;;;;;;;112.43;55.92;;;;;;;2.22;100.00;94663.19;10524697;28;20032;-73
2020/12/08 19:56:06;;;;;;;116.95;55.88;;;;;;;2.36;100.00;94669.13;10525550;28;20042;-73
2020/12/08 20:01:08;;;;;;;103.15;52.83;;;;;;;2.51;100.00;94679.34;10509222;28;20036;-73
2020/12/08 20:06:10;;;;;;;113.80;55.92;;;;;;;2.26;100.00;94684.78;10486134;28;20036;-72
2020/12/08 20:11:11;;;;;;;122.43;55.55;;;;;;;2.28;100.00;94676.59;10470028;28;20404;-72
2020/12/08 20:16:15;;;;;;;99.45;51.25;;;;;;;2.31;100.00;94682.25;10527029;28;20551;-72
2020/12/08 20:21:20;;;;;;;93.25;44.45;;;;;;;2.38;100.00;94693.56;10525972;28;20048;-72
2020/12/08 20:26:20;;;;;;;60.47;27.85;;;;;;;2.08;100.00;94696.19;10506322;28;20025;-72
2020/12/08 20:31:21;;;;;;;81.05;41.65;;;;;;;1.97;100.00;94699.56;10491256;28;20035;-72
2020/12/08 20:36:31;;;;;;;86.10;40.75;;;;;;;2.09;100.00;94691.69;10497596;28;20388;-72
2020/12/08 20:41:33;;;;;;;68.85;35.22;;;;;;;2.19;100.00;94692.78;10502224;28;20072;-72
2020/12/08 20:46:35;;;;;;;89.90;41.67;;;;;;;2.30;100.00;94703.69;10523368;28;20040;-73
2020/12/08 20:51:36;;;;;;;101.57;45.75;;;;;;;2.35;100.00;94696.69;10525707;28;20040;-72
2020/12/08 20:56:37;;;;;;;114.50;50.63;;;;;;;2.40;100.00;94698.69;10533584;28;20044;-72
2020/12/08 21:01:38;;;;;;;115.65;49.13;;;;;;;2.57;100.00;94693.56;10511610;28;20036;-72
2020/12/08 21:06:43;;;;;;;96.45;41.55;;;;;;;2.66;100.00;94686.09;10512749;28;20091;-72
2020/12/08 21:11:44;;;;;;;79.57;34.08;;;;;;;2.64;100.00;94698.78;10474745;28;20056;-71
2020/12/08 21:16:44;;;;;;;64.93;27.10;;;;;;;2.82;100.00;94692.59;10494557;28;20048;-72
2020/12/08 21:21:49;;;;;;;51.20;23.92;;;;;;;2.93;100.00;94680.41;10497121;28;20556;-72
2020/12/08 21:26:49;;;;;;;67.68;28.52;;;;;;;2.83;100.00;94684.44;10520331;28;20411;-72
2020/12/08 21:31:50;;;;;;;65.35;26.63;;;;;;;2.85;100.00;94689.53;10490757;28;20035;-72
2020/12/08 21:36:50;;;;;;;46.72;21.98;;;;;;;2.86;100.00;94676.03;10503681;28;20815;-73
2020/12/08 21:41:52;;;;;;;35.25;18.23;;;;;;;2.63;100.00;94681.25;10509002;28;20604;-72
2020/12/08 21:46:52;;;;;;;30.88;15.15;;;;;;;2.43;100.00;94677.00;10520563;28;20028;-72
2020/12/08 21:51:53;;;;;;;32.50;15.30;;;;;;;2.50;100.00;94675.06;10533961;28;20021;-72
2020/12/08 21:56:53;;;;;;;31.15;13.80;;;;;;;2.62;100.00;94684.94;10533314;28;20051;-73
2020/12/08 22:01:56;;;;;;;29.00;14.65;;;;;;;2.69;100.00;94681.16;10515218;28;20071;-72
2020/12/08 22:06:56;;;;;;;40.58;19.92;;;;;;;2.77;100.00;94666.75;10533327;28;20040;-72
2020/12/08 22:11:57;;;;;;;96.87;45.43;;;;;;;2.80;100.00;94668.16;10514570;28;20028;-73
2020/12/08 22:16:57;;;;;;;116.80;53.03;;;;;;;2.77;100.00;94672.06;10532363;28;20466;-73
2020/12/08 22:21:58;;;;;;;150.20;60.10;;;;;;;2.80;100.00;94668.16;10533317;28;20040;-72
2020/12/08 22:26:58;;;;;;;150.03;64.87;;;;;;;2.77;100.00;94677.38;10510513;28;20766;-72
2020/12/08 22:31:58;;;;;;;178.77;77.32;;;;;;;2.79;100.00;94664.69;10490797;28;21008;-72
2020/12/08 22:36:59;;;;;;;172.93;80.15;;;;;;;2.68;100.00;94652.16;10490400;28;20037;-72
2020/12/08 22:42:00;;;;;;;220.45;82.78;;;;;;;2.67;100.00;94651.38;10490337;28;20036;-72
2020/12/08 22:47:00;;;;;;;227.63;84.15;;;;;;;2.43;100.00;94650.47;10490121;28;20461;-72